Potisje — YT2187 — position and weather

sailwx.info

Track history (hours):
 
Tides and Currents Weather Stations Pressure Air Temp Water Temp Dewpoint Dewpoint Depression Visibility Wind Speed Wind Dir Waves Ship Positions

Potisje

Last reported at 2018-Jul-15 14:38 UTC. Time now 2018-Jul-16 12:37 UTC.
Position N 44°42' E 020°43'.

Length 70 m; draft 2.1 m.

Type: Cargo ship. MMSI: 279202187.

Date/timePositionNaut miles runAvg speedWind from/ knotsBaromVisibWave heightAir tempDewpointWater temp
2018-Jul-15 14:38N 44°42' E 020°43'0 1.9
2018-Jul-15 14:30N 44°42' E 020°43'1 1.9
2018-Jul-15 14:01N 44°41' E 020°44'1 1.7
2018-Jul-15 13:30N 44°40' E 020°44'1 1.7
2018-Jul-15 13:00N 44°40' E 020°45'1 1.7
2018-Jul-15 12:30N 44°40' E 020°46'1 1.6
2018-Jul-15 12:00N 44°40' E 020°48'1 1.4
2018-Jul-15 11:30N 44°40' E 020°49'1 1.6
2018-Jul-15 11:00N 44°40' E 020°50'1 1.9
2018-Jul-15 10:30N 44°40' E 020°51'1 1.9
2018-Jul-15 10:00N 44°40' E 020°52'1 1.8
2018-Jul-15 09:30N 44°40' E 020°54'2 1.7
2018-Jul-15 08:28N 44°41' E 020°56'1 1.7
2018-Jul-15 07:58N 44°41' E 020°57'1 1.7
2018-Jul-15 07:30N 44°42' E 020°57'1 1.7
2018-Jul-15 06:56N 44°43' E 020°58'1 1.8
2018-Jul-15 06:31N 44°43' E 020°59'1 1.5
2018-Jul-15 05:45N 44°43' E 021°01'0 1.4
2018-Jul-15 05:30N 44°43' E 021°01'1 1.6
2018-Jul-15 05:00N 44°43' E 021°02'1 1.7
2018-Jul-15 04:26N 44°43' E 021°04'1 0.1
2018-Jul-14 20:10N 44°43' E 021°05'0 0.0
2018-Jul-14 20:01N 44°43' E 021°05'0 0.8
2018-Jul-14 19:31N 44°43' E 021°05'1 1.6
2018-Jul-14 19:01N 44°43' E 021°06'1 1.4
2018-Jul-14 18:30N 44°44' E 021°07'1 1.8
2018-Jul-14 18:00N 44°44' E 021°08'4 0.4
2018-Jul-14 05:57N 44°47' E 021°13'8 0.9
2018-Jul-13 21:49N 44°43' E 021°04'0 0.0
2018-Jul-13 21:30N 44°43' E 021°04'1 1.5
2018-Jul-13 21:01N 44°43' E 021°03'2 4.8
2018-Jul-13 20:31N 44°43' E 020°59'2 4.7
2018-Jul-13 19:59N 44°41' E 020°57'2 4.8
2018-Jul-13 19:30N 44°40' E 020°54'2 5.0
2018-Jul-13 19:00N 44°39' E 020°50'2 4.8
2018-Jul-13 18:30N 44°39' E 020°47'0 0.5
2018-Jul-13 18:00N 44°40' E 020°47'0 0.3
2018-Jul-13 17:30N 44°40' E 020°47'2 4.3
2018-Jul-13 17:00N 44°40' E 020°44'2 4.8
2018-Jul-13 16:30N 44°42' E 020°42'2 4.7
2018-Jul-13 16:00N 44°44' E 020°40'2 4.7
2018-Jul-13 15:30N 44°46' E 020°38'2 4.6
2018-Jul-13 15:00N 44°48' E 020°38'4 3.6
2018-Jul-13 14:00N 44°51' E 020°36'2 4.7
2018-Jul-13 13:30N 44°50' E 020°33'2 4.3
2018-Jul-13 13:00N 44°50' E 020°30'2 4.7
2018-Jul-13 12:30N 44°50' E 020°27'2 4.7
2018-Jul-13 12:00N 44°51' E 020°24'2 3.7
2018-Jul-13 11:30N 44°52' E 020°22'0 0.0
2018-Jul-13 11:00N 44°52' E 020°22'0 0.0
2018-Jul-13 10:30N 44°52' E 020°22'0 0.0
2018-Jul-13 10:00N 44°52' E 020°22'0 0.0
2018-Jul-13 09:30N 44°52' E 020°22'0 0.0
2018-Jul-13 09:00N 44°52' E 020°22'0 0.0
2018-Jul-13 08:30N 44°52' E 020°22'0 0.0
2018-Jul-13 08:00N 44°52' E 020°22'0 0.0
2018-Jul-13 07:30N 44°52' E 020°22'0 0.2
2018-Jul-13 06:59N 44°52' E 020°22'0 0.0
2018-Jul-13 06:30N 44°52' E 020°22'0 0.0
2018-Jul-13 06:00N 44°52' E 020°22'0 0.0
2018-Jul-13 05:30N 44°52' E 020°22'0 0.0
2018-Jul-13 05:00N 44°52' E 020°22'0 0.0
2018-Jul-13 04:30N 44°52' E 020°22'0 0.0
2018-Jul-13 04:00N 44°52' E 020°22'0 0.0
2018-Jul-13 03:30N 44°52' E 020°22'0 0.0
2018-Jul-13 03:00N 44°52' E 020°22'0 0.0
2018-Jul-13 02:30N 44°52' E 020°22'0 0.0
2018-Jul-13 02:00N 44°52' E 020°22'0 0.0
2018-Jul-13 01:30N 44°52' E 020°22'0 0.0
2018-Jul-13 01:00N 44°52' E 020°22'0 0.0
2018-Jul-13 00:31N 44°52' E 020°22'0 0.0
2018-Jul-12 22:44N 44°52' E 020°22'0 0.0
2018-Jul-12 22:31N 44°52' E 020°22'0 0.0
2018-Jul-12 22:01N 44°52' E 020°22'0 0.0
2018-Jul-12 21:31N 44°52' E 020°22'0 0.0
2018-Jul-12 21:01N 44°52' E 020°22'0 0.0
2018-Jul-12 20:31N 44°52' E 020°22'0 0.9
2018-Jul-12 20:01N 44°52' E 020°22'1 1.4
2018-Jul-12 19:31N 44°52' E 020°23'1 1.6
2018-Jul-12 19:01N 44°52' E 020°24'1 1.7
2018-Jul-12 18:31N 44°51' E 020°25'1 1.7
2018-Jul-12 18:01N 44°51' E 020°26'1 1.7
2018-Jul-12 17:31N 44°50' E 020°27'1 1.7
2018-Jul-12 17:00N 44°50' E 020°28'1 1.7
2018-Jul-12 16:31N 44°50' E 020°29'1 1.7
2018-Jul-12 16:01N 44°50' E 020°31'1 1.8
2018-Jul-12 15:31N 44°50' E 020°32'1 1.7
2018-Jul-12 15:01N 44°50' E 020°33'1 1.8
2018-Jul-12 14:31N 44°51' E 020°34'1 1.8
2018-Jul-12 14:01N 44°51' E 020°35'1 1.8
2018-Jul-12 13:31N 44°51' E 020°37'1 1.9
2018-Jul-12 13:01N 44°51' E 020°38'1 2.0
2018-Jul-12 12:30N 44°50' E 020°39'1 2.0
2018-Jul-12 12:01N 44°49' E 020°39'1 1.8
2018-Jul-12 11:30N 44°48' E 020°38'1 2.0
2018-Jul-12 11:00N 44°47' E 020°38'1 1.7
2018-Jul-12 10:31N 44°46' E 020°38'1 1.7
2018-Jul-12 09:40N 44°45' E 020°39'0 1.8
2018-Jul-12 09:25N 44°45' E 020°39'10 1.0
2018-Jul-12 00:09N 44°40' E 020°50'0 0.0
2018-Jul-12 00:00N 44°40' E 020°50'0 0.0
2018-Jul-11 23:30N 44°40' E 020°50'0 0.0
2018-Jul-11 23:00N 44°40' E 020°50'0 0.0
2018-Jul-11 22:30N 44°40' E 020°50'0 0.0
2018-Jul-11 22:00N 44°40' E 020°50'0 0.0
2018-Jul-11 21:30N 44°40' E 020°50'0 0.0
2018-Jul-11 21:00N 44°40' E 020°50'1 1.7
2018-Jul-11 20:30N 44°40' E 020°52'1 1.9
2018-Jul-11 20:00N 44°40' E 020°53'1 1.8
2018-Jul-11 19:30N 44°40' E 020°54'1 1.8
2018-Jul-11 19:01N 44°40' E 020°55'1 1.9
2018-Jul-11 18:29N 44°41' E 020°56'1 2.0
2018-Jul-11 18:00N 44°42' E 020°57'1 1.9
2018-Jul-11 17:30N 44°42' E 020°58'1 2.0
2018-Jul-11 16:59N 44°43' E 020°59'1 1.9
2018-Jul-11 16:31N 44°43' E 021°01'1 2.0
2018-Jul-11 16:00N 44°43' E 021°02'1 1.9
2018-Jul-11 15:30N 44°43' E 021°03'13 0.7
2018-Jul-10 19:56N 44°49' E 021°20'3 1.7
2018-Jul-10 18:03N 44°48' E 021°16'0 4.5
2018-Jul-10 18:00N 44°48' E 021°15'2 4.6
2018-Jul-10 17:29N 44°46' E 021°12'2 4.5
2018-Jul-10 16:56N 44°45' E 021°10'2 4.4
2018-Jul-10 16:30N 44°44' E 021°07'2 4.9
2018-Jul-10 16:00N 44°43' E 021°04'2 4.6
2018-Jul-10 15:30N 44°43' E 021°01'2 4.4
2018-Jul-10 15:00N 44°42' E 020°58'2 4.7
2018-Jul-10 14:30N 44°41' E 020°56'1 1.8
2018-Jul-10 14:00N 44°40' E 020°55'0 0.0
2018-Jul-10 13:20N 44°40' E 020°55'0 0.0
2018-Jul-10 13:00N 44°40' E 020°55'0 0.0
2018-Jul-10 12:21N 44°40' E 020°55'0 0.0
2018-Jul-10 11:59N 44°40' E 020°55'0 0.0
2018-Jul-10 11:30N 44°40' E 020°55'1 2.6
2018-Jul-10 11:00N 44°40' E 020°53'11 4.4
2018-Jul-10 08:37N 44°44' E 020°40'1 4.8
2018-Jul-10 08:28N 44°45' E 020°39'2 4.5
2018-Jul-10 07:55N 44°47' E 020°37'2 4.7
2018-Jul-10 07:30N 44°49' E 020°38'2 4.3
2018-Jul-10 07:01N 44°51' E 020°38'2 4.5
2018-Jul-10 06:31N 44°51' E 020°35'2 4.9
2018-Jul-10 06:00N 44°50' E 020°32'2 4.8
2018-Jul-10 05:31N 44°50' E 020°29'2 4.8
2018-Jul-10 05:01N 44°51' E 020°26'1 2.2
2018-Jul-10 04:31N 44°51' E 020°24'0 0.0
2018-Jul-10 04:00N 44°51' E 020°24'1 1.7
2018-Jul-10 03:31N 44°52' E 020°23'1 2.5
2018-Jul-10 03:01N 44°52' E 020°22'0 0.0
2018-Jul-10 02:31N 44°52' E 020°22'0 0.0
2018-Jul-10 02:01N 44°52' E 020°22'0 0.0
2018-Jul-10 01:31N 44°52' E 020°22'0 0.0
2018-Jul-10 01:01N 44°52' E 020°22'0 0.0
2018-Jul-10 00:31N 44°52' E 020°22'0 0.0
2018-Jul-10 00:01N 44°52' E 020°22'0 0.0
2018-Jul-09 23:31N 44°52' E 020°22'0 0.0
2018-Jul-09 23:01N 44°52' E 020°22'0 0.0
2018-Jul-09 22:31N 44°52' E 020°22'0 0.0
2018-Jul-09 22:01N 44°52' E 020°22'0 0.0
2018-Jul-09 21:31N 44°52' E 020°22'0 0.0
2018-Jul-09 21:01N 44°52' E 020°22'0 0.0
2018-Jul-09 20:31N 44°52' E 020°22'0 0.0
2018-Jul-09 20:01N 44°52' E 020°22'0 0.0
2018-Jul-09 19:31N 44°52' E 020°22'0 0.0
2018-Jul-09 19:01N 44°52' E 020°22'0 0.0
2018-Jul-09 18:31N 44°52' E 020°22'0 0.0
2018-Jul-09 18:01N 44°52' E 020°22'0 0.0
2018-Jul-09 17:31N 44°52' E 020°22'0 0.0
2018-Jul-09 17:01N 44°52' E 020°22'0 0.0
2018-Jul-09 16:31N 44°52' E 020°22'0 0.0
2018-Jul-09 16:01N 44°52' E 020°22'0 0.0
2018-Jul-09 15:31N 44°52' E 020°22'0 0.0
2018-Jul-09 15:01N 44°52' E 020°22'0 0.0
2018-Jul-09 14:30N 44°52' E 020°22'0 0.2
2018-Jul-09 14:01N 44°52' E 020°22'0 0.0
2018-Jul-09 13:31N 44°52' E 020°22'0 0.0
2018-Jul-09 13:01N 44°52' E 020°22'0 0.0
2018-Jul-09 12:31N 44°52' E 020°22'0 0.0
2018-Jul-09 12:01N 44°52' E 020°22'0 0.0
2018-Jul-09 11:31N 44°52' E 020°22'0 0.0
2018-Jul-09 11:01N 44°52' E 020°22'0 0.0
2018-Jul-09 10:31N 44°52' E 020°22'0 0.0
2018-Jul-09 10:01N 44°52' E 020°22'0 0.0
2018-Jul-09 09:31N 44°52' E 020°22'0 0.0
2018-Jul-09 09:01N 44°52' E 020°22'0 0.0
2018-Jul-09 08:31N 44°52' E 020°22'0 0.0
2018-Jul-09 08:00N 44°52' E 020°22'0 0.0
2018-Jul-09 07:31N 44°52' E 020°22'0 0.0
2018-Jul-09 07:01N 44°52' E 020°22'0 0.0
2018-Jul-09 06:31N 44°52' E 020°22'0 0.0
2018-Jul-09 06:01N 44°52' E 020°22'0 0.0
2018-Jul-09 05:31N 44°52' E 020°22'0 0.0
2018-Jul-09 05:01N 44°52' E 020°22'0 0.0
2018-Jul-09 04:31N 44°52' E 020°22'0 0.0
2018-Jul-09 04:01N 44°52' E 020°22'0 0.0
2018-Jul-09 03:31N 44°52' E 020°22'0 0.0
2018-Jul-09 03:01N 44°52' E 020°22'0 0.0
2018-Jul-09 02:31N 44°52' E 020°22'0 0.0
2018-Jul-09 02:01N 44°52' E 020°22'0 0.0
2018-Jul-09 01:30N 44°52' E 020°22'0 0.0
2018-Jul-09 01:01N 44°52' E 020°22'0 0.0
2018-Jul-09 00:30N 44°52' E 020°22'0 0.0
2018-Jul-09 00:01N 44°52' E 020°22'0 0.0
2018-Jul-08 23:31N 44°52' E 020°22'0 0.0
2018-Jul-08 23:01N 44°52' E 020°22'0 0.0
2018-Jul-08 22:30N 44°52' E 020°22'0 0.0
2018-Jul-08 22:01N 44°52' E 020°22'0 0.0
2018-Jul-08 21:31N 44°52' E 020°22'0 0.0
2018-Jul-08 21:01N 44°52' E 020°22'0 0.0
2018-Jul-08 20:31N 44°52' E 020°22'0 0.0
2018-Jul-08 20:01N 44°52' E 020°22'0 0.0
2018-Jul-08 19:31N 44°52' E 020°22'0 0.0
2018-Jul-08 19:01N 44°52' E 020°22'0 0.0
2018-Jul-08 18:31N 44°52' E 020°22'0 0.0
2018-Jul-08 18:01N 44°52' E 020°22'0 0.0
2018-Jul-08 17:31N 44°52' E 020°22'0 0.0
2018-Jul-08 17:01N 44°52' E 020°22'0 0.0
2018-Jul-08 16:30N 44°52' E 020°22'0 0.0
2018-Jul-08 16:01N 44°52' E 020°22'0 0.0
2018-Jul-08 15:31N 44°52' E 020°22'1 1.1
2018-Jul-08 15:01N 44°52' E 020°22'1 1.2
2018-Jul-08 14:31N 44°52' E 020°23'1 1.3
2018-Jul-08 14:01N 44°52' E 020°24'1 1.4
2018-Jul-08 13:30N 44°51' E 020°25'1 1.6
2018-Jul-08 13:00N 44°51' E 020°26'1 1.5
2018-Jul-08 12:31N 44°50' E 020°27'1 1.5
2018-Jul-08 12:01N 44°50' E 020°28'1 1.6
2018-Jul-08 11:31N 44°50' E 020°29'1 1.6
2018-Jul-08 11:01N 44°50' E 020°30'1 1.6
2018-Jul-08 10:31N 44°50' E 020°31'1 1.7
2018-Jul-08 10:01N 44°50' E 020°32'1 1.8
2018-Jul-08 09:31N 44°50' E 020°33'1 1.7
2018-Jul-08 09:01N 44°51' E 020°34'1 1.6
2018-Jul-08 08:30N 44°51' E 020°35'1 1.6
2018-Jul-08 08:01N 44°51' E 020°36'1 1.6
2018-Jul-08 07:31N 44°51' E 020°37'1 1.7
2018-Jul-08 07:01N 44°51' E 020°38'1 1.8
2018-Jul-08 06:30N 44°50' E 020°39'1 1.8
2018-Jul-08 06:00N 44°49' E 020°38'1 1.8
2018-Jul-08 05:30N 44°48' E 020°38'1 1.7
2018-Jul-08 05:00N 44°47' E 020°38'1 1.5
2018-Jul-08 04:29N 44°46' E 020°38'2 1.5
2018-Jul-08 03:29N 44°45' E 020°39'0 0.8
2018-Jul-08 03:00N 44°45' E 020°39'0 0.0
2018-Jul-08 02:30N 44°45' E 020°39'0 0.0
2018-Jul-08 02:00N 44°45' E 020°39'0 0.0
2018-Jul-08 01:30N 44°45' E 020°39'0 0.0
2018-Jul-08 01:00N 44°45' E 020°39'0 0.0
2018-Jul-08 00:30N 44°45' E 020°39'0 0.0
2018-Jul-08 00:00N 44°45' E 020°39'0 0.0
2018-Jul-07 23:30N 44°45' E 020°39'0 0.0
2018-Jul-07 23:00N 44°45' E 020°39'0 0.0
2018-Jul-07 22:30N 44°45' E 020°39'0 0.0
2018-Jul-07 22:00N 44°45' E 020°39'0 0.0
2018-Jul-07 21:30N 44°45' E 020°39'0 0.0
2018-Jul-07 21:00N 44°45' E 020°39'0 0.7
2018-Jul-07 20:30N 44°45' E 020°39'1 1.7
2018-Jul-07 20:00N 44°44' E 020°40'1 1.7
2018-Jul-07 19:30N 44°43' E 020°41'1 1.6
2018-Jul-07 19:00N 44°43' E 020°42'1 1.4
2018-Jul-07 18:30N 44°42' E 020°42'1 1.5
2018-Jul-07 18:00N 44°42' E 020°43'1 1.6
2018-Jul-07 17:30N 44°41' E 020°44'1 1.5
2018-Jul-07 17:00N 44°40' E 020°44'1 1.6
2018-Jul-07 16:30N 44°40' E 020°45'1 1.7
2018-Jul-07 15:51N 44°40' E 020°47'1 1.5
2018-Jul-07 15:30N 44°40' E 020°48'1 1.5
2018-Jul-07 15:00N 44°40' E 020°49'1 1.5
2018-Jul-07 14:30N 44°40' E 020°50'1 1.8
2018-Jul-07 14:00N 44°40' E 020°51'1 1.8
2018-Jul-07 13:30N 44°40' E 020°52'1 1.7
2018-Jul-07 13:00N 44°40' E 020°53'1 1.7
2018-Jul-07 12:30N 44°40' E 020°55'1 1.5
2018-Jul-07 12:00N 44°40' E 020°55'1 1.6
2018-Jul-07 11:24N 44°41' E 020°56'12 1.0
2018-Jul-06 23:20N 44°46' E 021°12'0 0.0
2018-Jul-06 21:20N 44°46' E 021°12'0 0.0
2018-Jul-06 20:58N 44°46' E 021°12'0 0.0
2018-Jul-06 20:26N 44°46' E 021°12'2 1.3
2018-Jul-06 18:34N 44°47' E 021°15'0 1.6
2018-Jul-06 18:29N 44°47' E 021°15'10 0.9
2018-Jul-06 06:19N 44°43' E 021°02'2 4.9
2018-Jul-06 05:57N 44°43' E 020°60'2 5.1
2018-Jul-06 05:30N 44°42' E 020°57'3 5.4
2018-Jul-06 04:52N 44°40' E 020°53'3 0.7
2018-Jul-06 00:08N 44°40' E 020°49'0 0.0
2018-Jul-06 00:00N 44°40' E 020°49'0 0.0
2018-Jul-05 23:30N 44°40' E 020°49'0 0.0
2018-Jul-05 23:00N 44°40' E 020°49'0 0.0
2018-Jul-05 22:30N 44°40' E 020°49'0 0.0
2018-Jul-05 22:00N 44°40' E 020°49'0 0.0
2018-Jul-05 21:30N 44°40' E 020°49'0 0.0
2018-Jul-05 21:00N 44°40' E 020°49'0 0.6
2018-Jul-05 20:30N 44°39' E 020°48'2 4.5
2018-Jul-05 20:00N 44°40' E 020°45'2 4.9
2018-Jul-05 19:30N 44°42' E 020°43'2 4.8
2018-Jul-05 19:00N 44°44' E 020°41'2 4.9
2018-Jul-05 18:30N 44°45' E 020°38'2 4.7
2018-Jul-05 18:00N 44°48' E 020°38'2 4.7
2018-Jul-05 17:30N 44°50' E 020°39'2 4.8
2018-Jul-05 17:00N 44°51' E 020°36'3 5.0
2018-Jul-05 16:30N 44°50' E 020°33'2 4.5
2018-Jul-05 16:00N 44°50' E 020°30'3 5.3
2018-Jul-05 15:30N 44°50' E 020°26'2 4.9
2018-Jul-05 15:00N 44°52' E 020°23'  
Track history (hours):
 
Tides and Currents Weather Stations Pressure Air Temp Water Temp Dewpoint Dewpoint Depression Visibility Wind Speed Wind Dir Waves Ship Positions

Potisje

Last reported at 2018-Jul-15 14:38 UTC. Time now 2018-Jul-16 12:37 UTC.
Position N 44°42' E 020°43'.

Length 70 m; draft 2.1 m.

Type: Cargo ship. MMSI: 279202187.

Date/timePositionNaut miles runAvg speedWind from/ knotsBaromVisibWave heightAir tempDewpointWater temp
2018-Jul-15 14:38N 44°42' E 020°43'0 1.9
2018-Jul-15 14:30N 44°42' E 020°43'1 1.9
2018-Jul-15 14:01N 44°41' E 020°44'1 1.7
2018-Jul-15 13:30N 44°40' E 020°44'1 1.7
2018-Jul-15 13:00N 44°40' E 020°45'1 1.7
2018-Jul-15 12:30N 44°40' E 020°46'1 1.6
2018-Jul-15 12:00N 44°40' E 020°48'1 1.4
2018-Jul-15 11:30N 44°40' E 020°49'1 1.6
2018-Jul-15 11:00N 44°40' E 020°50'1 1.9
2018-Jul-15 10:30N 44°40' E 020°51'1 1.9
2018-Jul-15 10:00N 44°40' E 020°52'1 1.8
2018-Jul-15 09:30N 44°40' E 020°54'2 1.7
2018-Jul-15 08:28N 44°41' E 020°56'1 1.7
2018-Jul-15 07:58N 44°41' E 020°57'1 1.7
2018-Jul-15 07:30N 44°42' E 020°57'1 1.7
2018-Jul-15 06:56N 44°43' E 020°58'1 1.8
2018-Jul-15 06:31N 44°43' E 020°59'1 1.5
2018-Jul-15 05:45N 44°43' E 021°01'0 1.4
2018-Jul-15 05:30N 44°43' E 021°01'1 1.6
2018-Jul-15 05:00N 44°43' E 021°02'1 1.7
2018-Jul-15 04:26N 44°43' E 021°04'1 0.1
2018-Jul-14 20:10N 44°43' E 021°05'0 0.0
2018-Jul-14 20:01N 44°43' E 021°05'0 0.8
2018-Jul-14 19:31N 44°43' E 021°05'1 1.6
2018-Jul-14 19:01N 44°43' E 021°06'1 1.4
2018-Jul-14 18:30N 44°44' E 021°07'1 1.8
2018-Jul-14 18:00N 44°44' E 021°08'4 0.4
2018-Jul-14 05:57N 44°47' E 021°13'8 0.9
2018-Jul-13 21:49N 44°43' E 021°04'0 0.0
2018-Jul-13 21:30N 44°43' E 021°04'1 1.5
2018-Jul-13 21:01N 44°43' E 021°03'2 4.8
2018-Jul-13 20:31N 44°43' E 020°59'2 4.7
2018-Jul-13 19:59N 44°41' E 020°57'2 4.8
2018-Jul-13 19:30N 44°40' E 020°54'2 5.0
2018-Jul-13 19:00N 44°39' E 020°50'2 4.8
2018-Jul-13 18:30N 44°39' E 020°47'0 0.5
2018-Jul-13 18:00N 44°40' E 020°47'0 0.3
2018-Jul-13 17:30N 44°40' E 020°47'2 4.3
2018-Jul-13 17:00N 44°40' E 020°44'2 4.8
2018-Jul-13 16:30N 44°42' E 020°42'2 4.7
2018-Jul-13 16:00N 44°44' E 020°40'2 4.7
2018-Jul-13 15:30N 44°46' E 020°38'2 4.6
2018-Jul-13 15:00N 44°48' E 020°38'4 3.6
2018-Jul-13 14:00N 44°51' E 020°36'2 4.7
2018-Jul-13 13:30N 44°50' E 020°33'2 4.3
2018-Jul-13 13:00N 44°50' E 020°30'2 4.7
2018-Jul-13 12:30N 44°50' E 020°27'2 4.7
2018-Jul-13 12:00N 44°51' E 020°24'2 3.7
2018-Jul-13 11:30N 44°52' E 020°22'0 0.0
2018-Jul-13 11:00N 44°52' E 020°22'0 0.0
2018-Jul-13 10:30N 44°52' E 020°22'0 0.0
2018-Jul-13 10:00N 44°52' E 020°22'0 0.0
2018-Jul-13 09:30N 44°52' E 020°22'0 0.0
2018-Jul-13 09:00N 44°52' E 020°22'0 0.0
2018-Jul-13 08:30N 44°52' E 020°22'0 0.0
2018-Jul-13 08:00N 44°52' E 020°22'0 0.0
2018-Jul-13 07:30N 44°52' E 020°22'0 0.2
2018-Jul-13 06:59N 44°52' E 020°22'0 0.0
2018-Jul-13 06:30N 44°52' E 020°22'0 0.0
2018-Jul-13 06:00N 44°52' E 020°22'0 0.0
2018-Jul-13 05:30N 44°52' E 020°22'0 0.0
2018-Jul-13 05:00N 44°52' E 020°22'0 0.0
2018-Jul-13 04:30N 44°52' E 020°22'0 0.0
2018-Jul-13 04:00N 44°52' E 020°22'0 0.0
2018-Jul-13 03:30N 44°52' E 020°22'0 0.0
2018-Jul-13 03:00N 44°52' E 020°22'0 0.0
2018-Jul-13 02:30N 44°52' E 020°22'0 0.0
2018-Jul-13 02:00N 44°52' E 020°22'0 0.0
2018-Jul-13 01:30N 44°52' E 020°22'0 0.0
2018-Jul-13 01:00N 44°52' E 020°22'0 0.0
2018-Jul-13 00:31N 44°52' E 020°22'0 0.0
2018-Jul-12 22:44N 44°52' E 020°22'0 0.0
2018-Jul-12 22:31N 44°52' E 020°22'0 0.0
2018-Jul-12 22:01N 44°52' E 020°22'0 0.0
2018-Jul-12 21:31N 44°52' E 020°22'0 0.0
2018-Jul-12 21:01N 44°52' E 020°22'0 0.0
2018-Jul-12 20:31N 44°52' E 020°22'0 0.9
2018-Jul-12 20:01N 44°52' E 020°22'1 1.4
2018-Jul-12 19:31N 44°52' E 020°23'1 1.6
2018-Jul-12 19:01N 44°52' E 020°24'1 1.7
2018-Jul-12 18:31N 44°51' E 020°25'1 1.7
2018-Jul-12 18:01N 44°51' E 020°26'1 1.7
2018-Jul-12 17:31N 44°50' E 020°27'1 1.7
2018-Jul-12 17:00N 44°50' E 020°28'1 1.7
2018-Jul-12 16:31N 44°50' E 020°29'1 1.7
2018-Jul-12 16:01N 44°50' E 020°31'1 1.8
2018-Jul-12 15:31N 44°50' E 020°32'1 1.7
2018-Jul-12 15:01N 44°50' E 020°33'1 1.8
2018-Jul-12 14:31N 44°51' E 020°34'1 1.8
2018-Jul-12 14:01N 44°51' E 020°35'1 1.8
2018-Jul-12 13:31N 44°51' E 020°37'1 1.9
2018-Jul-12 13:01N 44°51' E 020°38'1 2.0
2018-Jul-12 12:30N 44°50' E 020°39'1 2.0
2018-Jul-12 12:01N 44°49' E 020°39'1 1.8
2018-Jul-12 11:30N 44°48' E 020°38'1 2.0
2018-Jul-12 11:00N 44°47' E 020°38'1 1.7
2018-Jul-12 10:31N 44°46' E 020°38'1 1.7
2018-Jul-12 09:40N 44°45' E 020°39'0 1.8
2018-Jul-12 09:25N 44°45' E 020°39'10 1.0
2018-Jul-12 00:09N 44°40' E 020°50'0 0.0
2018-Jul-12 00:00N 44°40' E 020°50'0 0.0
2018-Jul-11 23:30N 44°40' E 020°50'0 0.0
2018-Jul-11 23:00N 44°40' E 020°50'0 0.0
2018-Jul-11 22:30N 44°40' E 020°50'0 0.0
2018-Jul-11 22:00N 44°40' E 020°50'0 0.0
2018-Jul-11 21:30N 44°40' E 020°50'0 0.0
2018-Jul-11 21:00N 44°40' E 020°50'1 1.7
2018-Jul-11 20:30N 44°40' E 020°52'1 1.9
2018-Jul-11 20:00N 44°40' E 020°53'1 1.8
2018-Jul-11 19:30N 44°40' E 020°54'1 1.8
2018-Jul-11 19:01N 44°40' E 020°55'1 1.9
2018-Jul-11 18:29N 44°41' E 020°56'1 2.0
2018-Jul-11 18:00N 44°42' E 020°57'1 1.9
2018-Jul-11 17:30N 44°42' E 020°58'1 2.0
2018-Jul-11 16:59N 44°43' E 020°59'1 1.9
2018-Jul-11 16:31N 44°43' E 021°01'1 2.0
2018-Jul-11 16:00N 44°43' E 021°02'1 1.9
2018-Jul-11 15:30N 44°43' E 021°03'13 0.7
2018-Jul-10 19:56N 44°49' E 021°20'3 1.7
2018-Jul-10 18:03N 44°48' E 021°16'0 4.5
2018-Jul-10 18:00N 44°48' E 021°15'2 4.6
2018-Jul-10 17:29N 44°46' E 021°12'2 4.5
2018-Jul-10 16:56N 44°45' E 021°10'2 4.4
2018-Jul-10 16:30N 44°44' E 021°07'2 4.9
2018-Jul-10 16:00N 44°43' E 021°04'2 4.6
2018-Jul-10 15:30N 44°43' E 021°01'2 4.4
2018-Jul-10 15:00N 44°42' E 020°58'2 4.7
2018-Jul-10 14:30N 44°41' E 020°56'1 1.8
2018-Jul-10 14:00N 44°40' E 020°55'0 0.0
2018-Jul-10 13:20N 44°40' E 020°55'0 0.0
2018-Jul-10 13:00N 44°40' E 020°55'0 0.0
2018-Jul-10 12:21N 44°40' E 020°55'0 0.0
2018-Jul-10 11:59N 44°40' E 020°55'0 0.0
2018-Jul-10 11:30N 44°40' E 020°55'1 2.6
2018-Jul-10 11:00N 44°40' E 020°53'11 4.4
2018-Jul-10 08:37N 44°44' E 020°40'1 4.8
2018-Jul-10 08:28N 44°45' E 020°39'2 4.5
2018-Jul-10 07:55N 44°47' E 020°37'2 4.7
2018-Jul-10 07:30N 44°49' E 020°38'2 4.3
2018-Jul-10 07:01N 44°51' E 020°38'2 4.5
2018-Jul-10 06:31N 44°51' E 020°35'2 4.9
2018-Jul-10 06:00N 44°50' E 020°32'2 4.8
2018-Jul-10 05:31N 44°50' E 020°29'2 4.8
2018-Jul-10 05:01N 44°51' E 020°26'1 2.2
2018-Jul-10 04:31N 44°51' E 020°24'0 0.0
2018-Jul-10 04:00N 44°51' E 020°24'1 1.7
2018-Jul-10 03:31N 44°52' E 020°23'1 2.5
2018-Jul-10 03:01N 44°52' E 020°22'0 0.0
2018-Jul-10 02:31N 44°52' E 020°22'0 0.0
2018-Jul-10 02:01N 44°52' E 020°22'0 0.0
2018-Jul-10 01:31N 44°52' E 020°22'0 0.0
2018-Jul-10 01:01N 44°52' E 020°22'0 0.0
2018-Jul-10 00:31N 44°52' E 020°22'0 0.0
2018-Jul-10 00:01N 44°52' E 020°22'0 0.0
2018-Jul-09 23:31N 44°52' E 020°22'0 0.0
2018-Jul-09 23:01N 44°52' E 020°22'0 0.0
2018-Jul-09 22:31N 44°52' E 020°22'0 0.0
2018-Jul-09 22:01N 44°52' E 020°22'0 0.0
2018-Jul-09 21:31N 44°52' E 020°22'0 0.0
2018-Jul-09 21:01N 44°52' E 020°22'0 0.0
2018-Jul-09 20:31N 44°52' E 020°22'0 0.0
2018-Jul-09 20:01N 44°52' E 020°22'0 0.0
2018-Jul-09 19:31N 44°52' E 020°22'0 0.0
2018-Jul-09 19:01N 44°52' E 020°22'0 0.0
2018-Jul-09 18:31N 44°52' E 020°22'0 0.0
2018-Jul-09 18:01N 44°52' E 020°22'0 0.0
2018-Jul-09 17:31N 44°52' E 020°22'0 0.0
2018-Jul-09 17:01N 44°52' E 020°22'0 0.0
2018-Jul-09 16:31N 44°52' E 020°22'0 0.0
2018-Jul-09 16:01N 44°52' E 020°22'0 0.0
2018-Jul-09 15:31N 44°52' E 020°22'0 0.0
2018-Jul-09 15:01N 44°52' E 020°22'0 0.0
2018-Jul-09 14:30N 44°52' E 020°22'0 0.2
2018-Jul-09 14:01N 44°52' E 020°22'0 0.0
2018-Jul-09 13:31N 44°52' E 020°22'0 0.0
2018-Jul-09 13:01N 44°52' E 020°22'0 0.0
2018-Jul-09 12:31N 44°52' E 020°22'0 0.0
2018-Jul-09 12:01N 44°52' E 020°22'0 0.0
2018-Jul-09 11:31N 44°52' E 020°22'0 0.0
2018-Jul-09 11:01N 44°52' E 020°22'0 0.0
2018-Jul-09 10:31N 44°52' E 020°22'0 0.0
2018-Jul-09 10:01N 44°52' E 020°22'0 0.0
2018-Jul-09 09:31N 44°52' E 020°22'0 0.0
2018-Jul-09 09:01N 44°52' E 020°22'0 0.0
2018-Jul-09 08:31N 44°52' E 020°22'0 0.0
2018-Jul-09 08:00N 44°52' E 020°22'0 0.0
2018-Jul-09 07:31N 44°52' E 020°22'0 0.0
2018-Jul-09 07:01N 44°52' E 020°22'0 0.0
2018-Jul-09 06:31N 44°52' E 020°22'0 0.0
2018-Jul-09 06:01N 44°52' E 020°22'0 0.0
2018-Jul-09 05:31N 44°52' E 020°22'0 0.0
2018-Jul-09 05:01N 44°52' E 020°22'0 0.0
2018-Jul-09 04:31N 44°52' E 020°22'0 0.0
2018-Jul-09 04:01N 44°52' E 020°22'0 0.0
2018-Jul-09 03:31N 44°52' E 020°22'0 0.0
2018-Jul-09 03:01N 44°52' E 020°22'0 0.0
2018-Jul-09 02:31N 44°52' E 020°22'0 0.0
2018-Jul-09 02:01N 44°52' E 020°22'0 0.0
2018-Jul-09 01:30N 44°52' E 020°22'0 0.0
2018-Jul-09 01:01N 44°52' E 020°22'0 0.0
2018-Jul-09 00:30N 44°52' E 020°22'0 0.0
2018-Jul-09 00:01N 44°52' E 020°22'0 0.0
2018-Jul-08 23:31N 44°52' E 020°22'0 0.0
2018-Jul-08 23:01N 44°52' E 020°22'0 0.0
2018-Jul-08 22:30N 44°52' E 020°22'0 0.0
2018-Jul-08 22:01N 44°52' E 020°22'0 0.0
2018-Jul-08 21:31N 44°52' E 020°22'0 0.0
2018-Jul-08 21:01N 44°52' E 020°22'0 0.0
2018-Jul-08 20:31N 44°52' E 020°22'0 0.0
2018-Jul-08 20:01N 44°52' E 020°22'0 0.0
2018-Jul-08 19:31N 44°52' E 020°22'0 0.0
2018-Jul-08 19:01N 44°52' E 020°22'0 0.0
2018-Jul-08 18:31N 44°52' E 020°22'0 0.0
2018-Jul-08 18:01N 44°52' E 020°22'0 0.0
2018-Jul-08 17:31N 44°52' E 020°22'0 0.0
2018-Jul-08 17:01N 44°52' E 020°22'0 0.0
2018-Jul-08 16:30N 44°52' E 020°22'0 0.0
2018-Jul-08 16:01N 44°52' E 020°22'0 0.0
2018-Jul-08 15:31N 44°52' E 020°22'1 1.1
2018-Jul-08 15:01N 44°52' E 020°22'1 1.2
2018-Jul-08 14:31N 44°52' E 020°23'1 1.3
2018-Jul-08 14:01N 44°52' E 020°24'1 1.4
2018-Jul-08 13:30N 44°51' E 020°25'1 1.6
2018-Jul-08 13:00N 44°51' E 020°26'1 1.5
2018-Jul-08 12:31N 44°50' E 020°27'1 1.5
2018-Jul-08 12:01N 44°50' E 020°28'1 1.6
2018-Jul-08 11:31N 44°50' E 020°29'1 1.6
2018-Jul-08 11:01N 44°50' E 020°30'1 1.6
2018-Jul-08 10:31N 44°50' E 020°31'1 1.7
2018-Jul-08 10:01N 44°50' E 020°32'1 1.8
2018-Jul-08 09:31N 44°50' E 020°33'1 1.7
2018-Jul-08 09:01N 44°51' E 020°34'1 1.6
2018-Jul-08 08:30N 44°51' E 020°35'1 1.6
2018-Jul-08 08:01N 44°51' E 020°36'1 1.6
2018-Jul-08 07:31N 44°51' E 020°37'1 1.7
2018-Jul-08 07:01N 44°51' E 020°38'1 1.8
2018-Jul-08 06:30N 44°50' E 020°39'1 1.8
2018-Jul-08 06:00N 44°49' E 020°38'1 1.8
2018-Jul-08 05:30N 44°48' E 020°38'1 1.7
2018-Jul-08 05:00N 44°47' E 020°38'1 1.5
2018-Jul-08 04:29N 44°46' E 020°38'2 1.5
2018-Jul-08 03:29N 44°45' E 020°39'0 0.8
2018-Jul-08 03:00N 44°45' E 020°39'0 0.0
2018-Jul-08 02:30N 44°45' E 020°39'0 0.0
2018-Jul-08 02:00N 44°45' E 020°39'0 0.0
2018-Jul-08 01:30N 44°45' E 020°39'0 0.0
2018-Jul-08 01:00N 44°45' E 020°39'0 0.0
2018-Jul-08 00:30N 44°45' E 020°39'0 0.0
2018-Jul-08 00:00N 44°45' E 020°39'0 0.0
2018-Jul-07 23:30N 44°45' E 020°39'0 0.0
2018-Jul-07 23:00N 44°45' E 020°39'0 0.0
2018-Jul-07 22:30N 44°45' E 020°39'0 0.0
2018-Jul-07 22:00N 44°45' E 020°39'0 0.0
2018-Jul-07 21:30N 44°45' E 020°39'0 0.0
2018-Jul-07 21:00N 44°45' E 020°39'0 0.7
2018-Jul-07 20:30N 44°45' E 020°39'1 1.7
2018-Jul-07 20:00N 44°44' E 020°40'1 1.7
2018-Jul-07 19:30N 44°43' E 020°41'1 1.6
2018-Jul-07 19:00N 44°43' E 020°42'1 1.4
2018-Jul-07 18:30N 44°42' E 020°42'1 1.5
2018-Jul-07 18:00N 44°42' E 020°43'1 1.6
2018-Jul-07 17:30N 44°41' E 020°44'1 1.5
2018-Jul-07 17:00N 44°40' E 020°44'1 1.6
2018-Jul-07 16:30N 44°40' E 020°45'1 1.7
2018-Jul-07 15:51N 44°40' E 020°47'1 1.5
2018-Jul-07 15:30N 44°40' E 020°48'1 1.5
2018-Jul-07 15:00N 44°40' E 020°49'1 1.5
2018-Jul-07 14:30N 44°40' E 020°50'1 1.8
2018-Jul-07 14:00N 44°40' E 020°51'1 1.8
2018-Jul-07 13:30N 44°40' E 020°52'1 1.7
2018-Jul-07 13:00N 44°40' E 020°53'1 1.7
2018-Jul-07 12:30N 44°40' E 020°55'1 1.5
2018-Jul-07 12:00N 44°40' E 020°55'1 1.6
2018-Jul-07 11:24N 44°41' E 020°56'12 1.0
2018-Jul-06 23:20N 44°46' E 021°12'0 0.0
2018-Jul-06 21:20N 44°46' E 021°12'0 0.0
2018-Jul-06 20:58N 44°46' E 021°12'0 0.0
2018-Jul-06 20:26N 44°46' E 021°12'2 1.3
2018-Jul-06 18:34N 44°47' E 021°15'0 1.6
2018-Jul-06 18:29N 44°47' E 021°15'10 0.9
2018-Jul-06 06:19N 44°43' E 021°02'2 4.9
2018-Jul-06 05:57N 44°43' E 020°60'2 5.1
2018-Jul-06 05:30N 44°42' E 020°57'3 5.4
2018-Jul-06 04:52N 44°40' E 020°53'3 0.7
2018-Jul-06 00:08N 44°40' E 020°49'0 0.0
2018-Jul-06 00:00N 44°40' E 020°49'0 0.0
2018-Jul-05 23:30N 44°40' E 020°49'0 0.0
2018-Jul-05 23:00N 44°40' E 020°49'0 0.0
2018-Jul-05 22:30N 44°40' E 020°49'0 0.0
2018-Jul-05 22:00N 44°40' E 020°49'0 0.0
2018-Jul-05 21:30N 44°40' E 020°49'0 0.0
2018-Jul-05 21:00N 44°40' E 020°49'0 0.6
2018-Jul-05 20:30N 44°39' E 020°48'2 4.5
2018-Jul-05 20:00N 44°40' E 020°45'2 4.9
2018-Jul-05 19:30N 44°42' E 020°43'2 4.8
2018-Jul-05 19:00N 44°44' E 020°41'2 4.9
2018-Jul-05 18:30N 44°45' E 020°38'2 4.7
2018-Jul-05 18:00N 44°48' E 020°38'2 4.7
2018-Jul-05 17:30N 44°50' E 020°39'2 4.8
2018-Jul-05 17:00N 44°51' E 020°36'3 5.0
2018-Jul-05 16:30N 44°50' E 020°33'2 4.5
2018-Jul-05 16:00N 44°50' E 020°30'3 5.3
2018-Jul-05 15:30N 44°50' E 020°26'2 4.9
2018-Jul-05 15:00N 44°52' E 020°23'  

Dump ship's entire track history